ADDS METAR Data INFO
IDs: Format: Raw Decoded Include TAF

Data at: 2054 UTC 24 Jun 2017

KHYI 242047Z 09010G14KT 10SM CLR 27/20 A3005
KHYI 241945Z 05013KT 10SM BKN060 OVC070 27/29 A3012
KHYI 241845Z 04010G18KT 8SM FEW028 SCT048 SCT060 27/21 A3015 RMK LTG DSNT SE
KHYI 241745Z 01014G19KT 8SM BKN026 BKN031 BKN070 27/21 A3015
KHYI 241645Z 04012KT 8SM SCT100 27/21 A3012
KHYI 241545Z 34010KT 7SM CLR 27/21 A3008 RMK LTG DSNT SE
KHYI 241445Z 01010KT 4SM BR FEW012 28/24 A3007 RMK LTG DSNT NE&SE
KHYI 241415Z 36007KT 4SM BR SCT010 BKN015 27/25 A3005 RMK LTG DSNT SE
KHYI 241345Z 06006KT 4SM BR BKN008 27/25 A3004
KHYI 241245Z 12005KT 3SM BR FEW006 25/24 A3001
KHYI 241155Z 10003KT 4SM SCT008 BKN017 BKN032 24/24 A3001 RMK AO1 10270 20240 52020
KHYI 241147Z 10004KT 2SM BR FEW008 BKN017 BKN033 24/24 A3001 RMK FIRST
KHYI 241135Z AUTO 09003KT 5SM BKN008 BKN014 24/24 A3001 RMK AO1
KHYI 241115Z AUTO 00000KT 5SM BKN008 BKN014 OVC023 24/24 A3000 RMK AO1
KHYI 241055Z AUTO 00000KT 5SM BKN008 OVC014 24/24 A2999 RMK AO1
KHYI 241035Z AUTO 14004KT 5SM BKN008 24/23 A2997 RMK AO1
KHYI 241015Z AUTO 17006KT 7SM BKN010 24/24 A2995 RMK AO1
KHYI 240955Z AUTO 18004KT 7SM BKN010 24/23 A2996 RMK AO1
KHYI 240935Z AUTO 16004KT 4SM FEW010 24/23 A2995 RMK AO1
KHYI 240915Z AUTO 16004KT 6SM CLR 24/23 A2995 RMK AO1
KHYI 240855Z AUTO 15004KT 5SM CLR 24/23 A2995 RMK AO1 57003
KHYI 240835Z AUTO 15005KT 7SM CLR 24/23 A2994 RMK AO1
KHYI 240815Z AUTO 17005KT 6SM CLR 25/23 A2995 RMK AO1
KHYI 240755Z AUTO 18005KT 8SM FEW016 25/23 A2995 RMK AO1
KHYI 240735Z AUTO 21004KT 10SM FEW016 25/23 A2996 RMK AO1
KHYI 240715Z AUTO 20005KT 10SM CLR 26/23 A2996 RMK AO1
KHYI 240655Z AUTO 20005KT 9SM CLR 26/23 A2996 RMK AO1
KHYI 240635Z AUTO 19005KT 10SM CLR 26/23 A2997 RMK AO1
KHYI 240615Z AUTO 19004KT 9SM CLR 26/23 A2996 RMK AO1
KHYI 240555Z AUTO 18007KT 10SM CLR 27/23 A2996 RMK AO1 10360 20270 403800230 52034
KHYI 240535Z AUTO 17008KT 10SM CLR 27/23 A2995 RMK AO1
KHYI 240515Z AUTO 17009KT 10SM CLR 27/23 A2995 RMK AO1
KHYI 240455Z AUTO 18010KT 10SM CLR 28/23 A2995 RMK AO1
KHYI 240435Z AUTO 17009KT 10SM CLR 28/23 A2994 RMK AO1
KHYI 240415Z AUTO 17008KT 10SM CLR 28/23 A2992 RMK AO1
KHYI 240355Z AUTO 15011G14KT 10SM CLR 28/23 A2991 RMK AO1
KHYI 240335Z AUTO 15011G16KT 10SM CLR 29/22 A2989 RMK AO1
KHYI 240315Z AUTO 15012KT 10SM CLR 29/22 A2987 RMK AO1
KHYI 240255Z AUTO 15011KT 10SM CLR 30/22 A2986 RMK AO1 52030
KHYI 240235Z AUTO 15012KT 10SM CLR 31/21 A2984 RMK AO1
KHYI 240215Z AUTO 15012KT 10SM CLR 31/22 A2984 RMK AO1
KHYI 240155Z AUTO 14013G19KT 10SM CLR 32/22 A2982 RMK AO1
KHYI 240135Z AUTO 14010KT 10SM CLR 32/23 A2981 RMK AO1
KHYI 240115Z AUTO 15011KT 10SM CLR 33/23 A2980 RMK AO1
KHYI 240055Z AUTO 14014G19KT 10SM CLR 34/22 A2979 RMK AO1
KHYI 240035Z AUTO 14012G18KT 10SM CLR 34/22 A2978 RMK AO1
KHYI 240015Z AUTO 14009KT 10SM CLR 36/22 A2977 RMK AO1
KHYI 232355Z AUTO 15012KT 10SM CLR 36/22 A2977 RMK AO1 10380 20350 57007
KHYI 232350Z 13010KT 10SM CLR 36/22 A2976 RMK LAST
KHYI 232245Z 16010KT 10SM CLR 38/22 A2976
KHYI 232151Z 13009KT 10SM SCT070 38/22 A2977
KHYI 232045Z 15006KT 10SM CLR 38/22 A2979
KHYI 231945Z 17010G19KT 10SM CLR 37/22 A2980
KHYI 231848Z 18011G14KT 10SM CLR 36/23 A2982
KHYI 231745Z 17010KT 10SM CLR 34/23 A2982
KHYI 231646Z 21008KT 10SM CLR 33/23 A2983
KHYI 231545Z 17008KT 10SM CLR 32/23 A2983
KHYI 231454Z 17010KT 10SM SCT022 30/24 A2983
KHYI 231418Z 18008KT 10SM BKN015 BKN020 28/24 A2982
KHYI 231358Z 17008KT 7SM BKN009 BKN015 27/24 A2982
KHYI 231334Z 17008KT 5SM BR BKN009 BKN015 26/24 A2981
KHYI 231245Z 17004KT 3SM BR BKN011 24/24 A2980
KHYI 231211Z 17005KT 2SM BR BKN011 24/23 A2979
KHYI 231145Z 15004KT 3SM BR CLR 23/23 A2979 RMK FIRST
KHYI 231135Z AUTO 16005KT 5SM CLR 23/22 A2978 RMK AO1
KHYI 231115Z AUTO 17004KT 10SM CLR 23/23 A2978 RMK AO1
KHYI 231055Z AUTO 00000KT 10SM CLR 23/22 A2978 RMK AO1
KHYI 231035Z AUTO 17003KT 10SM CLR 24/23 A2977 RMK AO1
KHYI 231015Z AUTO 17005KT 10SM CLR 24/23 A2977 RMK AO1
KHYI 230955Z AUTO 16006KT 10SM CLR 23/23 A2976 RMK AO1
KHYI 230935Z AUTO 16005KT 10SM CLR 24/23 A2976 RMK AO1
KHYI 230915Z AUTO 16004KT 10SM CLR 24/23 A2977 RMK AO1
KHYI 230855Z AUTO 15003KT 10SM CLR 24/23 A2976 RMK AO1 52007


Page loaded:  20:54 UTC  |   01:54 PM Pacific  |   02:54 PM Mountain  |   03:54 PM Central  |   04:54 PM Eastern

 

ADVISORIES

FORECASTS

FORECASTS

OBSERVATIONS

USER TOOLS

ABOUT US